createdAt,value
2023-04-19T00:00:10.493Z,8
2023-04-19T00:02:11.792Z,8
2023-04-19T00:04:13.195Z,8
2023-04-19T00:05:15.247Z,8
2023-04-19T00:09:17.630Z,8
2023-04-19T00:11:18.839Z,8
2023-04-19T00:13:23.317Z,8
2023-04-19T00:15:24.578Z,8
2023-04-19T00:17:25.756Z,8.1
2023-04-19T00:19:26.947Z,8.1
2023-04-19T00:25:30.574Z,8
2023-04-19T00:27:35.067Z,8
2023-04-19T00:29:36.283Z,8
2023-04-19T00:35:39.963Z,8.1
2023-04-19T00:37:41.162Z,8.1
2023-04-19T00:39:42.401Z,8.1
2023-04-19T00:41:46.847Z,8.1
2023-04-19T00:43:48.069Z,8.2
2023-04-19T00:45:49.391Z,8.2
2023-04-19T00:47:50.529Z,8.2
2023-04-19T00:53:54.125Z,8.3
2023-04-19T01:00:01.062Z,8.3
2023-04-19T01:01:03.329Z,8.4
2023-04-19T01:21:18.687Z,8.3
2023-04-19T01:29:26.848Z,8.3
2023-04-19T01:31:28.102Z,8.3
2023-04-19T01:33:29.264Z,8.3
2023-04-19T01:35:30.505Z,8.3
2023-04-19T01:37:34.964Z,8.3
2023-04-19T01:39:36.154Z,8.3
2023-04-19T01:41:37.369Z,8.3
2023-04-19T01:43:38.594Z,8.3
2023-04-19T01:45:39.805Z,8.3
2023-04-19T01:47:41.256Z,8.3
2023-04-19T01:49:42.251Z,8.3
2023-04-19T01:51:46.715Z,8.4
2023-04-19T01:56:51.379Z,8.4
2023-04-19T02:00:53.846Z,8.5
2023-04-19T02:02:55.125Z,8.5
2023-04-19T02:04:59.512Z,8.5
2023-04-19T02:07:00.710Z,8.5
2023-04-19T02:09:01.915Z,8.5
2023-04-19T02:11:03.153Z,8.5
2023-04-19T02:15:05.588Z,8.6
2023-04-19T02:17:06.773Z,8.6
2023-04-19T02:19:11.245Z,8.6
2023-04-19T02:25:14.924Z,8.7
2023-04-19T02:31:18.573Z,8.8
2023-04-19T02:33:23.182Z,8.8
2023-04-19T02:39:26.669Z,8.9
2023-04-19T02:45:30.329Z,9
2023-04-19T02:49:36.021Z,9
2023-04-19T02:51:37.222Z,9
2023-04-19T02:54:05.575Z,9
2023-04-19T02:56:06.751Z,9
2023-04-19T02:58:07.971Z,8.9
2023-04-19T03:04:15.044Z,8.8
2023-04-19T03:06:16.112Z,8.8
2023-04-19T03:08:17.301Z,8.8
2023-04-19T03:10:18.536Z,8.8
2023-04-19T03:12:19.741Z,8.7
2023-04-19T03:14:24.224Z,8.6
2023-04-19T03:16:25.485Z,8.6
2023-04-19T03:18:26.621Z,8.6
2023-04-19T03:20:27.850Z,8.5
2023-04-19T03:22:29.071Z,8.5
2023-04-19T03:24:30.285Z,8.4
2023-04-19T03:26:31.550Z,8.4
2023-04-19T03:28:36.017Z,8.4
2023-04-19T03:30:37.187Z,8.4
2023-04-19T03:32:38.574Z,8.3
2023-04-19T03:34:39.644Z,8.3
2023-04-19T03:36:40.837Z,8.2
2023-04-19T03:38:42.060Z,8.2
2023-04-19T03:42:47.750Z,8.1
2023-04-19T03:44:48.978Z,8.1
2023-04-19T03:47:52.427Z,8
2023-04-19T03:49:54.277Z,8
2023-04-19T03:53:56.672Z,7.9
2023-04-19T03:56:01.158Z,7.9
2023-04-19T03:58:02.376Z,7.9
2023-04-19T04:02:04.878Z,7.9
2023-04-19T04:08:08.394Z,7.9
2023-04-19T04:10:12.910Z,7.9
2023-04-19T04:12:14.089Z,7.9
2023-04-19T04:14:15.485Z,7.9
2023-04-19T04:16:16.597Z,7.9
2023-04-19T04:18:17.770Z,8
2023-04-19T04:20:18.949Z,8
2023-04-19T04:26:25.856Z,8
2023-04-19T04:28:27.069Z,8
2023-04-19T04:32:29.557Z,8.1
2023-04-19T04:36:31.969Z,8.1
2023-04-19T04:38:36.440Z,8.2
2023-04-19T04:40:37.657Z,8.2
2023-04-19T04:42:38.883Z,8.2
2023-04-19T04:43:41.097Z,8.2
2023-04-19T04:45:42.369Z,8.3
2023-04-19T04:47:43.637Z,8.3
2023-04-19T04:49:44.771Z,8.3
2023-04-19T04:51:49.224Z,8.3
2023-04-19T04:53:50.453Z,8.3
2023-04-19T04:57:52.862Z,8.4
2023-04-19T04:59:54.080Z,8.4
2023-04-19T05:01:55.336Z,8.4
2023-04-19T05:10:03.389Z,8.4
2023-04-19T05:12:04.617Z,8.5
2023-04-19T05:16:07.097Z,8.5
2023-04-19T05:18:08.244Z,8.5
2023-04-19T05:20:12.734Z,8.5
2023-04-19T05:22:13.939Z,8.5
2023-04-19T05:24:15.394Z,8.5
2023-04-19T05:26:16.400Z,8.5
2023-04-19T05:28:17.548Z,8.6
2023-04-19T05:34:26.039Z,8.6
2023-04-19T05:39:30.649Z,8.6
2023-04-19T05:41:31.902Z,8.6
2023-04-19T05:43:33.092Z,8.7
2023-04-19T05:45:34.327Z,8.7
2023-04-19T05:47:38.839Z,8.8
2023-04-19T05:51:41.201Z,8.8
2023-04-19T05:57:44.909Z,8.8
2023-04-19T05:59:46.109Z,8.7
2023-04-19T06:01:50.667Z,8.7
2023-04-19T06:03:52.165Z,8.7
2023-04-19T06:07:59.546Z,8.7
2023-04-19T06:09:55.457Z,8.7
2023-04-19T06:11:56.672Z,8.6
2023-04-19T06:13:57.914Z,8.6
2023-04-19T06:16:02.448Z,8.6
2023-04-19T06:18:03.675Z,8.6
2023-04-19T06:20:04.796Z,8.6
2023-04-19T06:24:07.299Z,8.6
2023-04-19T06:28:09.677Z,8.5
2023-04-19T06:30:14.178Z,8.5
2023-04-19T06:32:15.355Z,8.5
2023-04-19T06:34:16.954Z,8.5
2023-04-19T06:36:44.886Z,8.6
2023-04-19T06:38:46.123Z,8.6
2023-04-19T06:40:47.334Z,8.5
2023-04-19T06:42:51.812Z,8.6
2023-04-19T07:01:06.064Z,8.6
2023-04-19T07:17:19.021Z,8.7
2023-04-19T07:19:20.214Z,8.9
2023-04-19T07:29:29.577Z,9.2
2023-04-19T07:30:31.816Z,9.3
2023-04-19T07:32:33.132Z,9.2
2023-04-19T07:34:34.256Z,9.2
2023-04-19T07:36:35.527Z,9.2
2023-04-19T07:38:39.976Z,9.4
2023-04-19T07:40:41.224Z,9.4
2023-04-19T07:52:51.779Z,9.6
2023-04-19T07:54:53.008Z,9.6
2023-04-19T07:59:06.968Z,10.8
2023-04-19T08:07:03.603Z,11.3
2023-04-19T08:13:07.316Z,12
2023-04-19T08:17:22.194Z,12.6
2023-04-19T08:19:10.991Z,12.6
2023-04-19T08:21:15.395Z,13
2023-04-19T08:25:17.868Z,13.5
2023-04-19T08:26:20.124Z,12.4
2023-04-19T08:34:27.789Z,13.1
2023-04-19T08:36:39.068Z,13
2023-04-19T08:40:31.218Z,13.3
2023-04-19T08:42:36.308Z,13.4
2023-04-19T08:44:36.799Z,13.5
2023-04-19T08:50:48.759Z,13.1
2023-04-19T08:52:51.973Z,13.1
2023-04-19T08:54:42.220Z,13.7
2023-04-19T08:56:43.368Z,13.8
2023-04-19T09:00:45.576Z,12.4
2023-04-19T09:02:50.097Z,12.1
2023-04-19T09:04:51.341Z,11.9
2023-04-19T09:06:52.153Z,12.5
2023-04-19T09:08:53.249Z,13.3
2023-04-19T09:10:54.420Z,14.2
2023-04-19T09:17:00.931Z,13.7
2023-04-19T09:19:22.373Z,13.7
2023-04-19T09:22:05.301Z,13.6
2023-04-19T09:24:06.436Z,13.5
2023-04-19T09:26:22.914Z,12.9
2023-04-19T09:28:08.688Z,12.9
2023-04-19T09:30:24.115Z,12.8
2023-04-19T09:32:14.110Z,13.1
2023-04-19T09:36:16.315Z,12.1
2023-04-19T09:40:18.592Z,12.3
2023-04-19T09:42:30.732Z,12.9
2023-04-19T09:46:25.137Z,12.7
2023-04-19T09:48:26.218Z,12.9
2023-04-19T09:50:27.710Z,12.9
2023-04-19T09:52:28.558Z,13.1
2023-04-19T09:54:29.552Z,12.9
2023-04-19T09:56:30.691Z,12.7
2023-04-19T09:58:48.969Z,12.8
2023-04-19T10:00:41.929Z,12.9
2023-04-19T10:02:37.499Z,13.7
2023-04-19T10:16:48.239Z,13.6
2023-04-19T10:19:16.344Z,12.8
2023-04-19T10:21:17.285Z,13
2023-04-19T10:23:18.374Z,13.9
2023-04-19T10:25:22.673Z,14.5
2023-04-19T10:31:26.014Z,14.8
2023-04-19T10:33:27.217Z,14.9
2023-04-19T10:37:29.359Z,15.2
2023-04-19T10:39:33.668Z,16.5
2023-04-19T10:41:34.757Z,16.5
2023-04-19T10:43:35.870Z,16
2023-04-19T10:45:37.016Z,16.3
2023-04-19T10:55:45.696Z,16.2
2023-04-19T10:57:46.825Z,16.1
2023-04-19T10:59:47.917Z,16.3
2023-04-19T11:01:49.128Z,16
2023-04-19T11:03:50.466Z,15.8
2023-04-19T11:07:55.494Z,15.8
2023-04-19T11:09:56.610Z,16.8
2023-04-19T11:11:57.718Z,18.3
2023-04-19T11:12:59.865Z,18.3
2023-04-19T11:15:00.979Z,16.6
2023-04-19T11:17:02.144Z,15.5
2023-04-19T11:21:07.446Z,15.8
2023-04-19T11:23:10.082Z,16
2023-04-19T11:25:11.215Z,15.6
2023-04-19T11:27:12.273Z,15.8
2023-04-19T11:29:13.690Z,16.5
2023-04-19T11:33:15.589Z,15.3
2023-04-19T11:35:19.870Z,17.1
2023-04-19T11:45:29.804Z,15.9
2023-04-19T11:55:34.107Z,14.3
2023-04-19T11:57:35.200Z,14.5
2023-04-19T11:59:36.337Z,14.5
2023-04-19T12:01:37.416Z,14.3
2023-04-19T12:05:42.915Z,14.5
2023-04-19T12:07:43.934Z,14.9
2023-04-19T12:08:46.072Z,14.8
2023-04-19T12:10:47.186Z,14.7
2023-04-19T12:12:48.304Z,14.8
2023-04-19T12:14:49.410Z,14
2023-04-19T12:16:53.734Z,13.8
2023-04-19T12:18:54.827Z,13.7
2023-04-19T12:20:55.925Z,13.9
2023-04-19T12:22:57.051Z,13.8
2023-04-19T12:24:58.167Z,13.5
2023-04-19T12:26:59.927Z,13.5
2023-04-19T12:31:04.705Z,14.2
2023-04-19T12:33:05.873Z,14.4
2023-04-19T12:35:06.949Z,14.3
2023-04-19T12:37:08.065Z,14.1
2023-04-19T12:39:09.193Z,13.8
2023-04-19T12:41:10.280Z,14
2023-04-19T12:45:15.725Z,14.3
2023-04-19T12:47:16.846Z,14.4
2023-04-19T12:49:18.037Z,14.6
2023-04-19T12:51:19.073Z,14.6
2023-04-19T12:57:22.449Z,14.8
2023-04-19T12:59:26.757Z,15.1
2023-04-19T13:01:27.894Z,15.1
2023-04-19T13:04:31.378Z,15
2023-04-19T13:06:32.246Z,14.7
2023-04-19T13:10:34.494Z,14.7
2023-04-19T13:14:39.894Z,14.6
2023-04-19T13:16:41.042Z,14.5
2023-04-19T13:18:42.165Z,14.6
2023-04-19T13:20:43.254Z,14.7
2023-04-19T13:22:44.388Z,14.9
2023-04-19T13:24:45.543Z,14.9
2023-04-19T13:26:49.839Z,14.7
2023-04-19T13:30:52.090Z,15.1
2023-04-19T13:34:54.268Z,15
2023-04-19T13:47:04.340Z,14.9
2023-04-19T13:53:07.554Z,14.6
2023-04-19T13:55:11.847Z,14.6
2023-04-19T13:57:12.953Z,14.7
2023-04-19T13:59:14.092Z,14.6
2023-04-19T14:01:42.076Z,14.7
2023-04-19T14:11:50.863Z,14.5
2023-04-19T14:13:51.954Z,14.4
2023-04-19T14:17:54.258Z,14.5
2023-04-19T14:19:55.328Z,14.6
2023-04-19T14:21:59.662Z,14.4
2023-04-19T14:34:06.389Z,14.6
2023-04-19T14:36:10.661Z,14.9
2023-04-19T14:38:11.790Z,14.9
2023-04-19T14:40:12.959Z,14.8
2023-04-19T14:42:14.055Z,14.8
2023-04-19T14:44:15.178Z,14.8
2023-04-19T14:46:16.325Z,14.8
2023-04-19T14:48:18.039Z,14.8
2023-04-19T14:50:21.687Z,14.5
2023-04-19T14:52:22.816Z,14.4
2023-04-19T14:54:23.950Z,14.5
2023-04-19T15:11:38.259Z,14.7
2023-04-19T15:15:40.498Z,14.9
2023-04-19T15:17:44.873Z,14.6
2023-04-19T15:19:45.891Z,14.7
2023-04-19T15:21:47.010Z,14.8
2023-04-19T15:23:48.145Z,14.6
2023-04-19T15:25:49.276Z,14.7
2023-04-19T15:27:50.388Z,14.7
2023-04-19T15:29:51.524Z,14.7
2023-04-19T15:31:55.878Z,14.6
2023-04-19T15:33:56.981Z,14.6
2023-04-19T15:35:58.077Z,14.5
2023-04-19T15:37:59.186Z,14.4
2023-04-19T15:40:00.338Z,14.5
2023-04-19T15:42:01.462Z,14.6
2023-04-19T15:44:02.574Z,14.7
2023-04-19T15:46:06.959Z,14.8
2023-04-19T15:48:08.014Z,14.6
2023-04-19T15:50:09.133Z,14.2
2023-04-19T15:51:11.259Z,14.5
2023-04-19T15:53:12.375Z,14.4
2023-04-19T15:55:13.490Z,14.6
2023-04-19T15:57:14.619Z,14.6
2023-04-19T16:05:22.282Z,14.1
2023-04-19T16:07:23.403Z,14.2
2023-04-19T16:09:24.534Z,14.2
2023-04-19T16:11:25.697Z,14.3
2023-04-19T16:13:31.463Z,14.4
2023-04-19T16:15:31.073Z,14.3
2023-04-19T16:25:36.675Z,14.4
2023-04-19T16:27:40.994Z,14.3
2023-04-19T16:29:42.128Z,14.3
2023-04-19T16:31:43.327Z,14.1
2023-04-19T16:33:44.362Z,14.1
2023-04-19T16:35:45.494Z,14.1
2023-04-19T16:39:47.740Z,14
2023-04-19T16:41:52.073Z,14
2023-04-19T16:46:56.428Z,14
2023-04-19T16:52:59.813Z,13.8
2023-04-19T16:55:04.132Z,13.8
2023-04-19T16:57:05.288Z,13.8
2023-04-19T16:59:06.378Z,13.7
2023-04-19T17:01:07.585Z,13.7
2023-04-19T17:03:08.783Z,13.7
2023-04-19T17:05:09.878Z,13.7
2023-04-19T17:07:10.923Z,13.7
2023-04-19T17:09:15.536Z,13.8
2023-04-19T17:11:16.478Z,13.8
2023-04-19T17:13:19.104Z,13.7
2023-04-19T17:15:20.253Z,13.7
2023-04-19T17:17:21.390Z,13.7
2023-04-19T17:19:22.518Z,13.7
2023-04-19T17:21:23.632Z,13.6
2023-04-19T17:23:27.952Z,13.5
2023-04-19T17:25:29.093Z,13.5
2023-04-19T17:27:30.194Z,13.5
2023-04-19T17:29:31.329Z,13.5
2023-04-19T17:37:39.148Z,13.5
2023-04-19T17:39:40.313Z,13.5
2023-04-19T17:44:09.469Z,13.3
2023-04-19T17:46:10.660Z,13.3
2023-04-19T17:48:11.856Z,13.2
2023-04-19T17:50:16.067Z,13.1
2023-04-19T17:52:17.196Z,13.1
2023-04-19T17:54:19.207Z,13.1
2023-04-19T17:56:19.468Z,13.1
2023-04-19T17:58:20.659Z,13
2023-04-19T18:00:21.803Z,13
2023-04-19T18:02:23.125Z,12.9
2023-04-19T18:04:27.330Z,12.8
2023-04-19T18:32:50.996Z,12.3
2023-04-19T18:36:53.465Z,12.2
2023-04-19T18:37:55.719Z,12.1
2023-04-19T18:39:56.977Z,12.1
2023-04-19T18:41:58.428Z,12
2023-04-19T18:46:04.046Z,11.9
2023-04-19T18:48:05.290Z,11.9
2023-04-19T18:52:07.718Z,11.9
2023-04-19T18:54:08.959Z,11.8
2023-04-19T18:56:10.223Z,11.8
2023-04-19T19:10:26.662Z,11.4
2023-04-19T19:20:31.697Z,11.2
2023-04-19T19:22:32.948Z,11.1
2023-04-19T19:24:34.187Z,11
2023-04-19T19:26:35.441Z,11
2023-04-19T19:28:39.921Z,10.9
2023-04-19T19:30:41.183Z,10.9
2023-04-19T19:32:42.482Z,10.9
2023-04-19T19:35:45.932Z,10.8
2023-04-19T19:43:54.165Z,10.6
2023-04-19T19:51:59.776Z,10.4
2023-04-19T19:54:00.340Z,10.3
2023-04-19T19:56:11.079Z,10.3
2023-04-19T20:02:08.699Z,10.2
2023-04-19T20:04:09.960Z,10.1
2023-04-19T20:06:57.229Z,10.1
2023-04-19T20:08:12.854Z,10
2023-04-19T20:10:16.823Z,10
2023-04-19T20:12:18.087Z,10
2023-04-19T20:14:19.300Z,9.9
2023-04-19T20:16:20.598Z,9.9
2023-04-19T20:18:21.801Z,9.9
2023-04-19T20:20:23.036Z,9.8
2023-04-19T20:22:24.252Z,9.8
2023-04-19T20:24:28.760Z,9.7
2023-04-19T20:26:29.998Z,9.7
2023-04-19T20:28:31.235Z,9.6
2023-04-19T20:29:33.497Z,9.6
2023-04-19T20:43:45.420Z,9.4
2023-04-19T20:45:46.662Z,9.4
2023-04-19T20:59:58.550Z,9.1
2023-04-19T21:01:59.914Z,9
2023-04-19T21:06:05.523Z,8.9
2023-04-19T21:08:06.726Z,8.9
2023-04-19T21:10:07.957Z,8.8
2023-04-19T21:12:09.191Z,8.8
2023-04-19T21:14:10.431Z,8.8
2023-04-19T21:16:11.702Z,8.8
2023-04-19T21:18:12.858Z,8.7
2023-04-19T21:20:17.370Z,8.7
2023-04-19T21:22:18.642Z,8.6
2023-04-19T21:28:49.423Z,8.5
2023-04-19T21:30:50.673Z,8.5
2023-04-19T21:32:55.173Z,8.4
2023-04-19T21:34:56.382Z,8.4
2023-04-19T21:36:57.597Z,8.4
2023-04-19T21:38:58.828Z,8.4
2023-04-19T21:41:00.076Z,8.4
2023-04-19T21:43:01.336Z,8.4
2023-04-19T21:45:02.551Z,8.4
2023-04-19T21:47:07.009Z,8.3
2023-04-19T21:49:08.246Z,8.3
2023-04-19T21:51:09.462Z,8.3
2023-04-19T21:53:10.676Z,8.2
2023-04-19T21:57:13.148Z,8.2
2023-04-19T21:59:14.386Z,8.2
2023-04-19T22:01:18.878Z,8.2
2023-04-19T22:03:20.230Z,8.2
2023-04-19T22:05:21.273Z,8.1
2023-04-19T22:07:22.505Z,8.1
2023-04-19T22:09:23.740Z,8.1
2023-04-19T22:11:24.994Z,8.1
2023-04-19T22:13:26.183Z,8.1
2023-04-19T22:15:30.649Z,8.2
2023-04-19T22:17:31.878Z,8.2
2023-04-19T22:19:33.099Z,8.2
2023-04-19T22:20:35.336Z,8.2
2023-04-19T22:30:44.685Z,8
2023-04-19T22:32:45.882Z,8
2023-04-19T22:34:47.120Z,8
2023-04-19T22:38:49.535Z,7.9
2023-04-19T22:40:50.750Z,7.9
2023-04-19T22:42:55.250Z,7.9
2023-04-19T22:44:56.427Z,7.9
2023-04-19T22:46:57.658Z,7.8
2023-04-19T22:48:58.879Z,7.8
2023-04-19T22:51:00.157Z,7.8
2023-04-19T22:53:01.305Z,7.8
2023-04-19T22:55:02.519Z,7.7
2023-04-19T22:57:07.000Z,7.7
2023-04-19T23:16:25.039Z,7.3
2023-04-19T23:18:26.179Z,7.2
2023-04-19T23:20:27.405Z,7.2
2023-04-19T23:24:33.099Z,7.1
2023-04-19T23:28:35.536Z,7
2023-04-19T23:30:36.744Z,7
2023-04-19T23:32:38.075Z,6.9
2023-04-19T23:34:39.193Z,6.9
2023-04-19T23:48:50.973Z,6.7
2023-04-19T23:50:52.205Z,6.6
2023-04-19T23:52:56.676Z,6.6
2023-04-19T23:54:57.884Z,6.7
2023-04-19T23:56:59.121Z,6.6
2023-04-19T23:59:00.314Z,6.6
